Time;durP1;ratioP1;P1;durP2;ratioP2;P2;SDS_P1;SDS_P2;PMS_P1;PMS_P2;Temp;Humidity;BMP_temperature;BMP_pressure;BME280_temperature;BME280_humidity;BME280_pressure;Samples;Min_cycle;Max_cycle;Signal;HPM_P1;HPM_P2
2021/03/22 00:01:31;;;;;;;0.68;0.22;;;7.90;48.20;;;;;;4939764;29;20032;-73
2021/03/22 00:03:57;;;;;;;0.28;0.10;;;7.90;47.90;;;;;;4947951;28;20399;-73
2021/03/22 00:06:23;;;;;;;0.70;0.20;;;7.80;48.30;;;;;;4933338;29;20030;-73
2021/03/22 00:08:54;;;;;;;0.17;0.17;;;8.00;47.90;;;;;;4934066;29;20111;-73
2021/03/22 00:11:19;;;;;;;0.38;0.20;;;7.90;48.10;;;;;;4933152;29;20498;-74
2021/03/22 00:13:45;;;;;;;1.17;0.35;;;8.00;47.90;;;;;;4951405;28;20035;-73
2021/03/22 00:16:11;;;;;;;0.20;0.20;;;8.00;48.10;;;;;;4933234;29;20028;-73
2021/03/22 00:18:39;;;;;;;0.30;0.20;;;8.20;47.90;;;;;;4934156;29;20078;-73
2021/03/22 00:21:08;;;;;;;0.25;0.17;;;7.80;48.70;;;;;;4933679;29;20039;-73
2021/03/22 00:23:34;;;;;;;0.90;0.30;;;7.80;48.70;;;;;;4936537;29;20035;-73
2021/03/22 00:26:01;;;;;;;0.25;0.08;;;7.80;48.40;;;;;;4937146;29;20036;-73
2021/03/22 00:28:27;;;;;;;0.45;0.20;;;7.70;48.70;;;;;;4937302;29;20665;-73
2021/03/22 00:30:53;;;;;;;0.95;0.20;;;7.90;48.30;;;;;;4936787;29;20028;-73
2021/03/22 00:33:21;;;;;;;0.93;0.20;;;8.20;48.00;;;;;;4953904;29;20035;-73
2021/03/22 00:35:47;;;;;;;0.38;0.20;;;8.10;48.30;;;;;;4939130;28;20508;-73
2021/03/22 00:38:15;;;;;;;0.28;0.08;;;8.10;47.90;;;;;;4927117;29;20487;-74
2021/03/22 00:40:43;;;;;;;0.10;0.10;;;8.00;48.30;;;;;;4936404;29;20086;-73
2021/03/22 00:43:10;;;;;;;0.10;0.10;;;7.90;48.80;;;;;;4937460;29;20027;-73
2021/03/22 00:45:36;;;;;;;0.35;0.20;;;7.80;49.00;;;;;;4936455;29;20028;-73
2021/03/22 00:48:02;;;;;;;0.65;0.30;;;8.00;48.80;;;;;;4936945;29;20393;-74
2021/03/22 00:50:30;;;;;;;0.32;0.10;;;8.10;48.70;;;;;;4937116;29;20047;-73
2021/03/22 00:52:55;;;;;;;0.15;0.10;;;7.90;49.00;;;;;;4936916;29;20521;-73
2021/03/22 00:55:22;;;;;;;1.35;0.30;;;7.80;49.10;;;;;;4936535;29;20032;-74
2021/03/22 00:57:48;;;;;;;0.25;0.05;;;7.70;49.20;;;;;;4936232;29;20035;-73
2021/03/22 01:00:33;;;;;;;0.47;0.13;;;7.70;49.50;;;;;;4950765;28;20027;-73
2021/03/22 01:02:59;;;;;;;0.52;0.28;;;7.80;49.20;;;;;;4936551;29;20035;-73
2021/03/22 01:05:25;;;;;;;0.95;0.20;;;7.80;49.30;;;;;;4935717;29;20039;-73
2021/03/22 01:07:52;;;;;;;0.43;0.15;;;7.80;49.00;;;;;;4936066;29;20384;-73
2021/03/22 01:10:34;;;;;;;0.55;0.20;;;7.80;49.20;;;;;;4936674;29;20032;-73
2021/03/22 01:13:00;;;;;;;1.13;0.30;;;7.90;49.20;;;;;;4936358;29;20110;-73
2021/03/22 01:15:26;;;;;;;1.08;0.35;;;7.70;49.70;;;;;;4936091;29;20023;-73
2021/03/22 01:17:53;;;;;;;0.63;0.20;;;7.60;49.90;;;;;;4936996;29;20034;-74
2021/03/22 01:20:26;;;;;;;0.28;0.03;;;7.70;49.30;;;;;;4935137;29;20034;-74
2021/03/22 01:22:52;;;;;;;0.65;0.17;;;7.90;49.10;;;;;;4936644;29;20083;-74
2021/03/22 01:25:17;;;;;;;1.08;0.28;;;7.80;49.70;;;;;;4935923;29;20031;-73
2021/03/22 01:27:43;;;;;;;0.22;0.00;;;7.70;50.00;;;;;;4936145;29;20461;-73
2021/03/22 01:30:16;;;;;;;0.73;0.30;;;7.70;50.00;;;;;;4935905;29;20435;-73
2021/03/22 01:32:42;;;;;;;0.08;0.08;;;7.60;50.10;;;;;;4930170;29;20095;-73
2021/03/22 01:35:09;;;;;;;0.30;0.20;;;7.80;49.80;;;;;;4936017;29;20023;-73
2021/03/22 01:37:34;;;;;;;0.57;0.35;;;7.80;49.70;;;;;;4936007;29;20042;-73
2021/03/22 01:40:00;;;;;;;0.73;0.22;;;7.80;49.90;;;;;;4936185;29;20036;-73
2021/03/22 01:42:36;;;;;;;0.40;0.13;;;7.90;48.90;;;;;;4935801;29;20130;-73
2021/03/22 01:45:06;;;;;;;0.80;0.47;;;7.80;49.90;;;;;;4936213;29;20038;-73
2021/03/22 01:47:34;;;;;;;1.13;0.63;;;7.80;49.20;;;;;;4935260;29;20039;-73
2021/03/22 01:50:05;;;;;;;2.42;0.32;;;7.80;49.20;;;;;;4935644;29;20034;-73
2021/03/22 01:52:34;;;;;;;1.15;0.40;;;7.70;49.50;;;;;;4935800;29;20035;-73
2021/03/22 01:55:00;;;;;;;0.63;0.22;;;7.50;50.00;;;;;;4936094;29;20039;-73
2021/03/22 01:57:29;;;;;;;0.40;0.30;;;7.60;50.00;;;;;;4936257;29;20027;-73
2021/03/22 02:00:08;;;;;;;1.10;0.32;;;7.70;49.80;;;;;;4935832;29;20024;-73
2021/03/22 02:02:35;;;;;;;0.70;0.20;;;7.70;49.90;;;;;;4931127;29;20063;-74
2021/03/22 02:05:06;;;;;;;0.30;0.10;;;7.70;50.20;;;;;;4936025;29;20032;-74
2021/03/22 02:07:32;;;;;;;0.73;0.30;;;7.80;50.20;;;;;;4935424;29;20106;-74
2021/03/22 02:09:59;;;;;;;0.47;0.10;;;7.90;49.80;;;;;;4935785;29;20032;-74
2021/03/22 02:12:26;;;;;;;0.40;0.10;;;7.90;49.60;;;;;;4935577;29;20030;-74
2021/03/22 02:14:53;;;;;;;1.73;0.43;;;7.70;50.20;;;;;;4934241;29;20455;-74
2021/03/22 02:17:54;;;;;;;1.08;0.13;;;7.70;50.30;;;;;;4935705;29;20031;-74
2021/03/22 02:21:05;;;;;;;0.20;0.20;;;7.80;50.10;;;;;;4935192;29;20066;-74
2021/03/22 02:23:52;;;;;;;0.57;0.25;;;7.80;50.00;;;;;;4938171;29;20047;-75
2021/03/22 02:27:09;;;;;;;0.55;0.20;;;7.60;50.60;;;;;;4935897;29;20023;-74
2021/03/22 02:30:05;;;;;;;0.38;0.10;;;7.50;50.70;;;;;;4933140;29;20035;-75
2021/03/22 02:32:40;;;;;;;0.22;0.20;;;7.50;50.70;;;;;;4926149;29;20036;-74
2021/03/22 02:35:28;;;;;;;0.70;0.22;;;7.50;50.80;;;;;;4929028;29;20040;-74
2021/03/22 02:37:58;;;;;;;0.20;0.10;;;7.50;50.60;;;;;;4935590;29;20035;-74
2021/03/22 02:40:38;;;;;;;1.40;0.52;;;7.50;50.60;;;;;;4934508;29;20063;-74
2021/03/22 02:43:05;;;;;;;1.80;0.25;;;7.40;50.70;;;;;;4922300;29;20110;-75
2021/03/22 02:45:39;;;;;;;0.70;0.28;;;7.50;50.60;;;;;;4933596;29;20456;-74
2021/03/22 02:48:06;;;;;;;0.90;0.20;;;7.40;50.80;;;;;;4931746;29;20561;-76
2021/03/22 02:50:36;;;;;;;0.50;0.30;;;7.40;50.70;;;;;;4934242;29;20031;-74
2021/03/22 02:53:19;;;;;;;1.63;0.40;;;7.40;50.90;;;;;;4934865;29;20383;-74
2021/03/22 02:55:59;;;;;;;0.47;0.20;;;7.30;51.10;;;;;;4949634;29;20368;-74
2021/03/22 02:58:30;;;;;;;0.40;0.20;;;7.30;51.00;;;;;;4934531;29;20082;-74
2021/03/22 03:01:10;;;;;;;0.30;0.30;;;7.30;51.00;;;;;;4933872;29;20035;-74
2021/03/22 03:03:36;;;;;;;0.57;0.30;;;7.30;50.70;;;;;;4934797;29;20036;-74
2021/03/22 03:06:03;;;;;;;0.80;0.30;;;7.00;51.60;;;;;;4934657;29;20479;-74
2021/03/22 03:08:34;;;;;;;1.15;0.40;;;7.10;51.50;;;;;;4935002;29;20056;-74
2021/03/22 03:11:00;;;;;;;0.75;0.30;;;6.80;51.70;;;;;;4934460;29;20032;-74
2021/03/22 03:13:25;;;;;;;0.68;0.30;;;6.60;52.10;;;;;;4945100;29;20034;-74
2021/03/22 03:15:52;;;;;;;0.80;0.45;;;6.70;52.10;;;;;;4933994;29;20035;-75
2021/03/22 03:18:18;;;;;;;0.60;0.20;;;6.60;52.70;;;;;;4935153;29;20032;-74
2021/03/22 03:20:44;;;;;;;1.45;0.40;;;6.60;52.70;;;;;;4935089;29;20531;-75
2021/03/22 03:23:10;;;;;;;0.82;0.35;;;6.20;53.50;;;;;;4933439;29;20063;-74
2021/03/22 03:25:36;;;;;;;0.80;0.30;;;6.30;53.70;;;;;;4934254;29;20427;-74
2021/03/22 03:28:02;;;;;;;1.77;0.40;;;6.30;53.60;;;;;;4934082;29;20024;-74
2021/03/22 03:30:31;;;;;;;0.90;0.20;;;5.90;54.10;;;;;;4933936;29;20386;-74
2021/03/22 03:32:58;;;;;;;3.58;0.55;;;5.80;54.50;;;;;;4925369;29;20566;-74
2021/03/22 03:35:28;;;;;;;0.57;0.20;;;5.70;54.90;;;;;;4932978;29;20039;-74
2021/03/22 03:37:55;;;;;;;0.38;0.20;;;5.60;55.00;;;;;;4934345;29;20039;-74
2021/03/22 03:40:28;;;;;;;0.35;0.20;;;5.60;55.00;;;;;;4933736;29;20483;-74
2021/03/22 03:42:54;;;;;;;0.52;0.30;;;5.60;55.00;;;;;;4924114;29;20371;-74
2021/03/22 03:45:22;;;;;;;0.55;0.30;;;5.50;55.80;;;;;;4933617;29;20032;-74
2021/03/22 03:47:48;;;;;;;0.32;0.17;;;5.70;54.90;;;;;;4934110;29;20027;-74
2021/03/22 03:50:19;;;;;;;0.55;0.30;;;5.50;55.50;;;;;;4934014;29;20086;-75
2021/03/22 03:52:45;;;;;;;2.45;0.30;;;5.40;55.80;;;;;;4933926;29;20039;-75
2021/03/22 03:55:12;;;;;;;0.10;0.10;;;5.40;55.70;;;;;;4932596;29;20035;-74
2021/03/22 03:57:38;;;;;;;0.77;0.30;;;5.30;56.10;;;;;;4933880;29;20035;-74
2021/03/22 04:00:12;;;;;;;0.45;0.32;;;5.50;55.40;;;;;;4933637;29;20101;-74
2021/03/22 04:02:41;;;;;;;0.52;0.20;;;5.50;55.50;;;;;;4930190;29;20496;-74
2021/03/22 04:05:08;;;;;;;0.85;0.38;;;5.20;56.60;;;;;;4914947;29;20114;-75
2021/03/22 04:07:33;;;;;;;0.65;0.20;;;5.30;56.30;;;;;;4926424;29;20142;-74
2021/03/22 04:09:59;;;;;;;0.13;0.13;;;5.40;56.00;;;;;;4926851;29;20635;-75
2021/03/22 04:12:25;;;;;;;0.30;0.20;;;5.40;56.10;;;;;;4926643;29;20032;-75
2021/03/22 04:14:51;;;;;;;0.25;0.13;;;5.60;55.80;;;;;;4926675;29;20094;-76
2021/03/22 04:17:16;;;;;;;1.20;0.38;;;5.80;55.00;;;;;;4926187;29;20036;-75
2021/03/22 04:19:42;;;;;;;1.08;0.30;;;5.50;56.00;;;;;;4926822;29;20059;-75
2021/03/22 04:22:09;;;;;;;0.63;0.28;;;5.10;57.00;;;;;;4925669;29;20730;-74
2021/03/22 04:24:35;;;;;;;0.43;0.20;;;5.10;57.40;;;;;;4941137;28;20036;-74
2021/03/22 04:27:01;;;;;;;1.05;0.30;;;5.00;57.70;;;;;;4925075;29;20557;-75
2021/03/22 04:29:26;;;;;;;0.73;0.20;;;5.00;57.70;;;;;;4926899;29;20047;-74
2021/03/22 04:31:52;;;;;;;0.43;0.15;;;5.10;57.30;;;;;;4926780;29;20065;-74
2021/03/22 04:34:18;;;;;;;1.38;0.40;;;5.70;55.80;;;;;;4926990;29;20028;-75
2021/03/22 04:36:44;;;;;;;0.85;0.30;;;5.90;55.50;;;;;;4925843;29;20027;-74
2021/03/22 04:39:10;;;;;;;0.70;0.20;;;5.70;55.60;;;;;;4925159;29;20450;-74
2021/03/22 04:41:37;;;;;;;1.10;0.30;;;5.50;56.40;;;;;;4926362;29;20765;-74
2021/03/22 04:44:05;;;;;;;0.63;0.20;;;5.90;55.40;;;;;;4939830;28;20483;-74
2021/03/22 04:46:31;;;;;;;0.85;0.22;;;5.40;56.60;;;;;;4925857;29;20024;-74
2021/03/22 04:48:56;;;;;;;0.85;0.28;;;5.10;57.20;;;;;;4926180;29;20035;-74
2021/03/22 04:51:22;;;;;;;0.43;0.20;;;5.10;57.00;;;;;;4926160;29;20042;-75
2021/03/22 04:53:48;;;;;;;0.55;0.30;;;4.90;57.50;;;;;;4925090;29;20076;-75
2021/03/22 04:56:14;;;;;;;0.68;0.30;;;5.10;56.90;;;;;;4925701;29;20394;-74
2021/03/22 04:58:40;;;;;;;0.40;0.20;;;4.60;58.30;;;;;;4926369;29;20562;-74
2021/03/22 05:01:08;;;;;;;0.75;0.28;;;4.80;57.70;;;;;;4925764;29;20036;-74
2021/03/22 05:03:36;;;;;;;0.10;0.10;;;4.90;57.50;;;;;;4926088;29;20942;-75
2021/03/22 05:06:03;;;;;;;1.27;0.32;;;4.80;58.00;;;;;;4926609;29;20027;-76
2021/03/22 05:08:29;;;;;;;0.88;0.30;;;4.40;59.10;;;;;;4926235;29;20538;-74
2021/03/22 05:10:59;;;;;;;0.70;0.25;;;4.70;58.40;;;;;;4930088;29;20125;-76
2021/03/22 05:13:24;;;;;;;0.73;0.32;;;4.60;58.50;;;;;;4928886;29;20083;-74
2021/03/22 05:15:51;;;;;;;0.43;0.25;;;4.50;58.80;;;;;;4929635;29;20028;-75
2021/03/22 05:18:17;;;;;;;1.10;0.30;;;4.50;58.80;;;;;;4928848;29;20035;-75
2021/03/22 05:20:52;;;;;;;2.58;0.30;;;4.70;58.30;;;;;;4928921;29;20031;-74
2021/03/22 05:23:22;;;;;;;0.30;0.22;;;4.90;57.50;;;;;;4926092;29;20093;-75
2021/03/22 05:25:48;;;;;;;0.60;0.20;;;4.90;57.20;;;;;;4928356;29;20031;-74
2021/03/22 05:28:14;;;;;;;2.15;0.80;;;4.60;58.70;;;;;;4928680;29;20107;-75
2021/03/22 05:30:41;;;;;;;2.13;0.40;;;4.90;57.50;;;;;;4929124;29;20127;-73
2021/03/22 05:33:12;;;;;;;0.65;0.20;;;5.20;56.80;;;;;;4928714;29;20042;-75
2021/03/22 05:35:40;;;;;;;0.70;0.22;;;5.40;56.30;;;;;;4928795;29;20374;-75
2021/03/22 05:38:06;;;;;;;1.23;0.50;;;5.10;57.00;;;;;;4929385;29;20024;-74
2021/03/22 05:40:34;;;;;;;0.73;0.30;;;5.40;57.00;;;;;;4942904;28;20028;-74
2021/03/22 05:43:24;;;;;;;0.38;0.30;;;5.60;56.40;;;;;;4929245;29;20028;-74
2021/03/22 05:46:35;;;;;;;0.57;0.20;;;5.40;57.20;;;;;;4913426;29;20158;-74
2021/03/22 05:49:23;;;;;;;0.20;0.20;;;5.80;56.10;;;;;;4918406;29;20032;-73
2021/03/22 05:52:22;;;;;;;0.20;0.20;;;5.90;56.00;;;;;;4928208;29;20043;-74
2021/03/22 05:55:21;;;;;;;2.53;0.50;;;5.70;56.70;;;;;;4929020;29;20027;-73
2021/03/22 05:57:59;;;;;;;1.90;0.63;;;5.60;57.80;;;;;;4928479;29;20507;-74
2021/03/22 06:00:49;;;;;;;3.28;0.85;;;6.00;56.10;;;;;;4928366;29;20083;-74
2021/03/22 06:03:41;;;;;;;1.35;0.50;;;6.20;55.70;;;;;;4928385;29;20044;-75
2021/03/22 06:06:21;;;;;;;1.27;0.38;;;6.10;55.70;;;;;;4928088;29;20458;-75
2021/03/22 06:09:11;;;;;;;0.55;0.32;;;6.10;57.10;;;;;;4910095;29;20092;-74
2021/03/22 06:12:01;;;;;;;2.15;0.60;;;6.00;56.70;;;;;;4917810;29;20047;-74
2021/03/22 06:14:53;;;;;;;0.17;0.17;;;6.10;56.70;;;;;;4912824;29;20028;-74
2021/03/22 06:17:33;;;;;;;1.45;0.73;;;6.20;56.30;;;;;;4927681;29;20035;-74
2021/03/22 06:20:00;;;;;;;3.25;0.90;;;6.30;56.70;;;;;;4926910;29;20035;-74
2021/03/22 06:22:30;;;;;;;0.98;0.30;;;6.30;56.60;;;;;;4927526;29;20467;-74
2021/03/22 06:25:22;;;;;;;1.48;0.40;;;6.70;53.90;;;;;;4942945;28;20070;-74
2021/03/22 06:27:54;;;;;;;2.40;0.40;;;6.70;54.30;;;;;;4927145;29;20028;-73
2021/03/22 06:30:23;;;;;;;1.25;0.43;;;6.70;55.20;;;;;;4927719;29;20755;-73
2021/03/22 06:32:53;;;;;;;1.27;0.50;;;6.50;55.60;;;;;;4933573;29;20523;-74
2021/03/22 06:35:24;;;;;;;7.15;0.90;;;6.60;54.20;;;;;;4927400;29;20676;-72
2021/03/22 06:37:50;;;;;;;0.82;0.25;;;7.00;53.10;;;;;;4925721;29;20055;-74
2021/03/22 06:40:31;;;;;;;0.88;0.40;;;7.10;55.00;;;;;;4927041;29;20638;-74
2021/03/22 06:43:29;;;;;;;0.90;0.32;;;7.00;53.10;;;;;;4927629;29;20035;-73
2021/03/22 06:46:12;;;;;;;0.32;0.20;;;7.10;52.30;;;;;;4936842;29;20131;-74
2021/03/22 06:48:38;;;;;;;1.25;0.60;;;7.10;53.10;;;;;;4927583;29;20374;-74
2021/03/22 06:51:04;;;;;;;2.30;0.60;;;7.20;51.90;;;;;;4927994;29;20543;-74
2021/03/22 06:53:41;;;;;;;1.35;0.35;;;7.20;52.70;;;;;;4928081;29;20103;-74
2021/03/22 06:56:21;;;;;;;2.58;0.45;;;7.10;52.60;;;;;;4927356;29;20031;-73
2021/03/22 06:58:50;;;;;;;1.70;0.50;;;7.10;54.70;;;;;;4927422;29;20042;-74
2021/03/22 07:01:29;;;;;;;0.40;0.10;;;7.00;57.70;;;;;;4927750;29;20058;-75
2021/03/22 07:04:30;;;;;;;1.95;0.60;;;6.90;56.50;;;;;;4927819;29;20029;-73
2021/03/22 07:07:17;;;;;;;1.15;0.38;;;6.90;58.30;;;;;;4928760;29;20051;-71
2021/03/22 07:09:58;;;;;;;5.03;0.63;;;6.90;56.90;;;;;;4918615;29;20050;-74
2021/03/22 07:12:30;;;;;;;1.02;0.38;;;6.90;56.00;;;;;;4927348;29;20039;-74
2021/03/22 07:15:14;;;;;;;2.00;1.05;;;7.10;55.40;;;;;;4926736;29;20032;-74
2021/03/22 07:17:39;;;;;;;2.28;0.77;;;7.20;52.80;;;;;;4926754;29;20538;-74
2021/03/22 07:20:16;;;;;;;1.38;0.50;;;7.30;52.60;;;;;;4926417;29;20110;-74
2021/03/22 07:22:43;;;;;;;0.70;0.28;;;7.30;54.20;;;;;;4927030;29;20090;-74
2021/03/22 07:25:35;;;;;;;0.73;0.38;;;7.20;54.00;;;;;;4926818;29;20447;-74
2021/03/22 07:28:24;;;;;;;1.17;0.50;;;7.20;53.80;;;;;;4926522;29;20024;-74
2021/03/22 07:31:16;;;;;;;1.13;0.77;;;7.30;52.60;;;;;;4925002;29;20036;-74
2021/03/22 07:33:59;;;;;;;3.13;0.73;;;7.40;51.80;;;;;;4940262;28;20078;-74
2021/03/22 07:36:40;;;;;;;2.92;0.68;;;7.50;51.60;;;;;;4926891;29;20086;-74
2021/03/22 07:39:12;;;;;;;2.22;0.65;;;7.60;51.40;;;;;;4925375;29;20036;-73
2021/03/22 07:42:08;;;;;;;1.20;0.63;;;7.50;52.70;;;;;;4926805;29;20043;-73
2021/03/22 07:45:02;;;;;;;1.10;0.73;;;7.50;52.30;;;;;;4926317;29;20035;-74
2021/03/22 07:47:40;;;;;;;1.95;0.50;;;7.70;51.90;;;;;;4926156;29;20175;-74
2021/03/22 07:50:27;;;;;;;0.82;0.40;;;7.70;51.90;;;;;;4924701;29;20083;-73
2021/03/22 07:53:02;;;;;;;1.10;0.60;;;7.70;51.70;;;;;;4924734;29;20544;-74
2021/03/22 07:55:32;;;;;;;1.08;0.40;;;7.80;51.90;;;;;;4926205;29;20030;-74
2021/03/22 07:58:07;;;;;;;4.00;0.80;;;8.00;51.50;;;;;;4926179;29;20038;-73
2021/03/22 08:00:45;;;;;;;1.27;0.47;;;7.90;51.80;;;;;;4926224;29;20098;-75
2021/03/22 08:03:16;;;;;;;0.65;0.45;;;7.80;51.80;;;;;;4925226;29;20040;-75
2021/03/22 08:06:01;;;;;;;3.67;0.70;;;7.90;51.20;;;;;;4925770;29;20042;-75
2021/03/22 08:08:32;;;;;;;0.65;0.30;;;8.00;50.90;;;;;;4924983;29;20051;-75
2021/03/22 08:11:35;;;;;;;1.83;0.50;;;8.10;50.70;;;;;;4926463;29;20028;-76
2021/03/22 08:14:15;;;;;;;1.73;0.80;;;8.10;51.10;;;;;;4925387;29;20032;-75
2021/03/22 08:17:04;;;;;;;1.73;0.65;;;8.20;50.90;;;;;;4925997;29;20082;-75
2021/03/22 08:19:40;;;;;;;3.17;1.20;;;8.20;50.90;;;;;;4910513;29;20506;-76
2021/03/22 08:22:28;;;;;;;4.13;0.77;;;8.30;51.10;;;;;;4926660;29;20047;-75
2021/03/22 08:25:12;;;;;;;1.88;1.00;;;8.20;50.60;;;;;;4921272;29;20032;-77
2021/03/22 08:27:43;;;;;;;1.58;0.63;;;8.30;50.90;;;;;;4919771;29;20036;-77
2021/03/22 08:30:36;;;;;;;4.10;0.82;;;8.30;51.40;;;;;;4922761;29;20109;-76
2021/03/22 08:33:20;;;;;;;2.58;0.60;;;8.40;51.30;;;;;;4915065;29;20031;-75
2021/03/22 08:36:28;;;;;;;1.50;0.50;;;8.40;50.90;;;;;;4926502;29;20054;-75
2021/03/22 08:39:01;;;;;;;1.50;0.60;;;8.50;51.00;;;;;;4909776;29;20336;-77
2021/03/22 08:41:48;;;;;;;2.35;0.68;;;8.50;50.30;;;;;;4925750;29;20036;-76
2021/03/22 08:44:22;;;;;;;2.17;0.82;;;8.60;50.50;;;;;;4927994;29;20120;-75
2021/03/22 08:47:05;;;;;;;1.75;0.90;;;8.60;50.30;;;;;;4929418;29;20641;-78
2021/03/22 08:49:57;;;;;;;3.47;0.80;;;8.70;50.40;;;;;;4929948;29;20055;-75
2021/03/22 08:52:30;;;;;;;1.58;0.47;;;8.80;50.30;;;;;;4930123;29;20032;-76
2021/03/22 08:55:12;;;;;;;1.90;1.00;;;8.90;49.70;;;;;;4929566;29;20031;-76
2021/03/22 08:57:53;;;;;;;2.08;0.65;;;8.90;49.80;;;;;;4926573;29;20665;-76
2021/03/22 09:00:34;;;;;;;3.05;0.52;;;9.00;49.10;;;;;;4922290;29;20118;-75
2021/03/22 09:03:15;;;;;;;3.97;0.73;;;9.00;48.90;;;;;;4929844;29;20032;-75
2021/03/22 09:06:02;;;;;;;1.60;0.63;;;9.20;48.90;;;;;;4929895;29;20387;-76
2021/03/22 09:08:30;;;;;;;1.40;0.38;;;9.20;49.50;;;;;;4928759;29;20503;-75
2021/03/22 09:10:56;;;;;;;2.35;0.60;;;9.30;49.20;;;;;;4929412;29;20035;-75
2021/03/22 09:13:29;;;;;;;1.90;0.50;;;9.40;48.80;;;;;;4929865;29;20467;-76
2021/03/22 09:16:11;;;;;;;1.45;0.50;;;9.60;48.70;;;;;;4929407;29;20082;-75
2021/03/22 09:19:03;;;;;;;1.88;0.80;;;9.60;49.40;;;;;;4929635;29;20032;-76
2021/03/22 09:21:39;;;;;;;;;;;;;;;;;;;;;
2021/03/22 09:24:36;;;;;;;0.85;0.40;;;9.70;47.70;;;;;;4929480;29;20028;-78
2021/03/22 09:27:22;;;;;;;2.15;0.80;;;13.20;46.50;;;;;;4929819;29;20039;-76
2021/03/22 09:29:57;;;;;;;2.67;1.13;;;15.70;43.20;;;;;;4929065;29;20059;-75
2021/03/22 09:32:28;;;;;;;1.90;0.70;;;15.30;42.40;;;;;;4929401;29;20482;-75
2021/03/22 09:35:06;;;;;;;2.05;0.68;;;16.50;42.20;;;;;;4929282;29;20102;-76
2021/03/22 09:37:51;;;;;;;1.70;0.82;;;15.80;40.20;;;;;;4929302;29;20542;-75
2021/03/22 09:40:20;;;;;;;2.30;0.90;;;14.50;42.00;;;;;;4929535;29;20023;-75
2021/03/22 09:43:04;;;;;;;2.70;0.93;;;12.90;43.10;;;;;;4928943;29;20071;-75
2021/03/22 09:45:37;;;;;;;3.25;1.13;;;11.80;46.10;;;;;;4928527;29;20524;-76
2021/03/22 09:48:31;;;;;;;2.22;0.55;;;11.50;46.90;;;;;;4928979;29;20525;-76
2021/03/22 09:51:03;;;;;;;1.88;0.60;;;11.60;46.80;;;;;;4910125;29;20024;-76
2021/03/22 09:53:54;;;;;;;2.03;0.60;;;11.30;46.50;;;;;;4931176;29;20391;-75
2021/03/22 09:56:38;;;;;;;3.47;1.00;;;11.00;46.00;;;;;;4929337;29;20520;-76
2021/03/22 09:59:33;;;;;;;2.05;0.90;;;10.70;45.30;;;;;;4928610;29;20130;-76
2021/03/22 10:02:15;;;;;;;3.92;0.90;;;10.90;47.60;;;;;;4928327;29;20903;-75
2021/03/22 10:05:07;;;;;;;1.45;0.75;;;10.80;45.70;;;;;;4928878;29;20028;-75
2021/03/22 10:07:37;;;;;;;0.68;0.47;;;11.10;46.20;;;;;;4928531;29;20713;-75
2021/03/22 10:10:13;;;;;;;4.95;0.93;;;11.20;46.40;;;;;;4928124;29;20054;-76
2021/03/22 10:12:47;;;;;;;1.88;0.80;;;11.20;45.60;;;;;;4928408;29;20533;-75
2021/03/22 10:15:12;;;;;;;2.40;0.77;;;11.20;45.90;;;;;;4928956;29;20043;-76
2021/03/22 10:17:43;;;;;;;1.00;0.57;;;11.10;45.90;;;;;;4928101;29;20036;-76
2021/03/22 10:20:22;;;;;;;2.20;0.60;;;11.30;45.60;;;;;;4928264;29;20028;-75
2021/03/22 10:22:52;;;;;;;2.45;0.77;;;11.40;45.50;;;;;;4943084;29;20043;-76
2021/03/22 10:25:28;;;;;;;3.63;0.80;;;11.70;45.20;;;;;;4927737;29;20032;-77
2021/03/22 10:28:04;;;;;;;5.88;0.93;;;11.80;46.00;;;;;;4927794;29;20035;-77
2021/03/22 10:30:30;;;;;;;1.90;0.75;;;11.80;46.50;;;;;;4909899;29;20036;-76
2021/03/22 10:33:03;;;;;;;1.92;0.30;;;12.20;46.50;;;;;;4909711;29;20614;-75
2021/03/22 10:35:51;;;;;;;2.22;0.70;;;12.40;45.80;;;;;;4912256;29;20031;-77
2021/03/22 10:38:27;;;;;;;6.63;1.00;;;12.30;45.30;;;;;;4928582;29;20407;-76
2021/03/22 10:40:54;;;;;;;1.33;0.40;;;12.40;45.10;;;;;;4927224;29;20064;-77
2021/03/22 10:43:31;;;;;;;2.30;0.95;;;12.40;44.80;;;;;;4909002;29;20095;-77
2021/03/22 10:46:18;;;;;;;3.45;1.10;;;12.50;45.60;;;;;;4909175;29;20496;-76
2021/03/22 10:48:45;;;;;;;2.70;0.70;;;12.50;44.00;;;;;;4909439;29;20103;-77
2021/03/22 10:51:13;;;;;;;7.25;0.70;;;12.40;44.10;;;;;;4908251;29;20184;-76
2021/03/22 10:54:01;;;;;;;2.92;0.50;;;12.40;45.60;;;;;;4926759;29;20045;-77
2021/03/22 10:56:33;;;;;;;3.67;1.70;;;12.50;44.70;;;;;;4928062;29;20086;-76
2021/03/22 10:59:06;;;;;;;3.17;1.17;;;12.60;44.10;;;;;;4927317;29;20028;-75
2021/03/22 11:01:35;;;;;;;2.38;0.40;;;12.80;44.60;;;;;;4957969;28;20044;-77
2021/03/22 11:04:10;;;;;;;4.45;0.63;;;12.60;43.80;;;;;;4927262;29;20054;-77
2021/03/22 11:06:39;;;;;;;3.03;0.75;;;12.70;44.80;;;;;;4926207;29;20052;-77
2021/03/22 11:09:07;;;;;;;2.30;0.60;;;12.70;44.90;;;;;;4927471;29;20031;-75
2021/03/22 11:11:34;;;;;;;1.20;0.45;;;12.90;44.50;;;;;;4927487;29;20674;-76
2021/03/22 11:14:05;;;;;;;2.80;0.80;;;12.90;44.10;;;;;;4927913;29;20487;-76
2021/03/22 11:16:35;;;;;;;2.78;0.88;;;13.10;43.40;;;;;;4926652;29;20066;-77
2021/03/22 11:19:23;;;;;;;39.85;3.75;;;13.20;44.20;;;;;;4926070;29;20640;-76
2021/03/22 11:21:50;;;;;;;6.10;1.98;;;13.40;44.50;;;;;;4909455;29;20050;-77
2021/03/22 11:24:31;;;;;;;2.50;0.52;;;13.60;43.70;;;;;;4908766;29;20074;-76
2021/03/22 11:27:00;;;;;;;4.07;1.00;;;13.20;43.80;;;;;;4914731;29;20387;-76
2021/03/22 11:29:26;;;;;;;5.18;1.42;;;13.40;42.70;;;;;;4926737;29;20038;-76
2021/03/22 11:32:17;;;;;;;0.95;0.60;;;13.40;43.40;;;;;;4926874;29;20506;-76
2021/03/22 11:34:46;;;;;;;1.40;0.30;;;12.90;42.80;;;;;;4927253;29;20035;-76
2021/03/22 11:37:33;;;;;;;2.05;0.70;;;12.80;44.60;;;;;;4941903;29;20023;-76
2021/03/22 11:40:18;;;;;;;0.82;0.38;;;13.00;44.40;;;;;;4926725;29;20044;-76
2021/03/22 11:43:01;;;;;;;1.13;0.43;;;12.70;43.40;;;;;;4928036;29;20071;-76
2021/03/22 11:45:37;;;;;;;0.70;0.50;;;12.50;42.90;;;;;;4927212;29;20982;-76
2021/03/22 11:48:10;;;;;;;2.85;0.70;;;12.50;43.50;;;;;;4926960;29;20020;-75
2021/03/22 11:50:41;;;;;;;2.58;0.50;;;12.30;43.90;;;;;;4926703;29;20031;-76
2021/03/22 11:53:17;;;;;;;3.83;0.80;;;12.40;44.40;;;;;;4926998;29;20032;-76
2021/03/22 11:55:47;;;;;;;2.80;0.70;;;12.30;44.10;;;;;;4926487;29;20028;-76
2021/03/22 11:58:26;;;;;;;1.70;0.45;;;12.30;44.00;;;;;;4926763;29;20110;-76
2021/03/22 12:00:52;;;;;;;1.00;0.47;;;12.20;44.00;;;;;;4926329;29;20042;-76
2021/03/22 12:03:30;;;;;;;3.05;1.23;;;12.20;44.10;;;;;;4926653;29;20023;-77
2021/03/22 12:06:12;;;;;;;1.10;0.52;;;12.20;44.30;;;;;;4927221;29;20023;-76
2021/03/22 12:08:48;;;;;;;2.45;0.40;;;12.20;44.30;;;;;;4927112;29;20063;-76
2021/03/22 12:11:18;;;;;;;1.45;0.38;;;12.30;43.50;;;;;;4927464;29;20578;-75
2021/03/22 12:13:47;;;;;;;4.10;0.90;;;12.40;42.90;;;;;;4926592;29;20558;-76
2021/03/22 12:16:20;;;;;;;2.10;0.77;;;13.20;45.00;;;;;;4927105;29;20027;-76
2021/03/22 12:18:46;;;;;;;1.55;0.70;;;13.70;42.50;;;;;;4928459;29;20032;-78
2021/03/22 12:21:13;;;;;;;2.25;0.75;;;13.60;42.50;;;;;;4930733;29;20036;-76
2021/03/22 12:23:40;;;;;;;2.53;0.73;;;13.60;42.50;;;;;;4929862;29;20050;-77
2021/03/22 12:26:06;;;;;;;2.88;0.70;;;13.80;42.60;;;;;;4930636;29;20602;-76
2021/03/22 12:28:32;;;;;;;1.00;0.70;;;13.70;41.50;;;;;;4930904;29;20114;-76
2021/03/22 12:30:59;;;;;;;4.10;0.50;;;13.60;41.50;;;;;;4921250;29;20032;-76
2021/03/22 12:33:28;;;;;;;6.45;1.98;;;14.10;42.10;;;;;;4919159;29;20027;-78
2021/03/22 12:36:00;;;;;;;1.45;0.57;;;14.20;43.20;;;;;;4930741;29;20023;-76
2021/03/22 12:38:26;;;;;;;1.75;0.45;;;14.10;41.10;;;;;;4930120;29;20038;-76
2021/03/22 12:40:52;;;;;;;10.15;0.60;;;14.10;41.70;;;;;;4929654;29;20035;-76
2021/03/22 12:43:28;;;;;;;2.38;0.70;;;14.20;41.50;;;;;;4931086;29;20082;-76
2021/03/22 12:45:55;;;;;;;5.50;0.90;;;14.30;41.50;;;;;;4930236;29;20031;-76
2021/03/22 12:48:20;;;;;;;0.90;0.50;;;14.20;41.60;;;;;;4930555;29;20035;-76
2021/03/22 12:50:49;;;;;;;1.58;0.57;;;14.40;42.00;;;;;;4930910;29;20043;-76
2021/03/22 12:53:16;;;;;;;1.70;0.70;;;14.60;41.90;;;;;;4944706;29;20236;-76
2021/03/22 12:55:42;;;;;;;2.22;0.50;;;14.30;41.20;;;;;;4929762;29;20036;-76
2021/03/22 12:58:20;;;;;;;2.30;0.82;;;14.60;42.40;;;;;;4930131;29;20062;-76
2021/03/22 13:00:47;;;;;;;1.38;0.52;;;14.50;40.50;;;;;;4929923;29;20024;-75
2021/03/22 13:03:18;;;;;;;1.60;0.60;;;14.40;41.40;;;;;;4930301;29;20036;-76
2021/03/22 13:05:43;;;;;;;2.90;1.15;;;14.40;40.70;;;;;;4929433;29;20042;-76
2021/03/22 13:08:09;;;;;;;5.75;0.88;;;14.80;42.00;;;;;;4929530;29;20576;-76
2021/03/22 13:10:35;;;;;;;2.90;0.80;;;14.50;40.10;;;;;;4929435;29;20131;-77
2021/03/22 13:13:02;;;;;;;1.55;0.60;;;14.50;41.20;;;;;;4930306;29;20032;-77
2021/03/22 13:15:42;;;;;;;6.20;0.80;;;14.70;41.50;;;;;;4929931;29;20466;-75
2021/03/22 13:18:19;;;;;;;1.23;0.40;;;14.60;40.70;;;;;;4930205;29;20459;-75
2021/03/22 13:20:47;;;;;;;1.98;0.47;;;14.20;39.60;;;;;;4929634;29;20563;-74
2021/03/22 13:23:15;;;;;;;2.05;0.80;;;14.40;41.00;;;;;;4929507;29;20494;-73
2021/03/22 13:25:40;;;;;;;2.42;0.50;;;14.50;40.90;;;;;;4929575;29;20028;-74
2021/03/22 13:28:19;;;;;;;5.05;1.25;;;14.60;40.70;;;;;;4929330;29;20083;-78
2021/03/22 13:30:45;;;;;;;2.92;0.57;;;14.70;41.20;;;;;;4929075;29;20070;-77